Time;durP1;ratioP1;P1;durP2;ratioP2;P2;SDS_P1;SDS_P2;PMS_P1;PMS_P2;Temp;Humidity;BMP_temperature;BMP_pressure;BME280_temperature;BME280_humidity;BME280_pressure;Samples;Min_cycle;Max_cycle;Signal;HPM_P1;HPM_P2
2022/03/28 00:00:48;;;;;;;8.60;3.88;;;;;;;;;;4992072;28;20049;-63
2022/03/28 00:03:14;;;;;;;10.05;4.05;;;;;;;;;;4992831;28;20084;-63
2022/03/28 00:05:40;;;;;;;6.30;3.80;;;;;;;;;;4992820;28;20078;-63
2022/03/28 00:08:06;;;;;;;7.65;3.90;;;;;;;;;;4992225;28;20405;-63
2022/03/28 00:10:33;;;;;;;7.90;4.70;;;;;;;;;;4992726;28;20511;-63
2022/03/28 00:12:59;;;;;;;6.72;3.80;;;;;;;;;;4992872;28;20045;-63
2022/03/28 00:15:25;;;;;;;4.18;2.28;;;;;;;;;;4992512;28;20039;-63
2022/03/28 00:17:52;;;;;;;4.18;2.33;;;;;;;;;;4992087;28;20648;-63
2022/03/28 00:20:18;;;;;;;4.32;2.65;;;;;;;;;;4992653;28;20178;-63
2022/03/28 00:22:44;;;;;;;6.82;3.13;;;;;;;;;;4992464;28;20046;-63
2022/03/28 00:25:11;;;;;;;4.97;2.92;;;;;;;;;;4991181;28;20118;-63
2022/03/28 00:27:38;;;;;;;7.88;2.75;;;;;;;;;;4973057;28;20043;-63
2022/03/28 00:30:05;;;;;;;6.97;2.88;;;;;;;;;;4971803;28;20042;-63
2022/03/28 00:32:32;;;;;;;5.25;2.90;;;;;;;;;;4972235;28;20552;-63
2022/03/28 00:34:58;;;;;;;5.45;3.10;;;;;;;;;;4971606;28;20133;-63
2022/03/28 00:37:24;;;;;;;6.13;3.28;;;;;;;;;;4972970;28;20234;-63
2022/03/28 00:39:50;;;;;;;6.55;3.47;;;;;;;;;;4972335;28;20039;-63
2022/03/28 00:42:16;;;;;;;5.60;3.60;;;;;;;;;;4972475;28;20496;-64
2022/03/28 00:44:42;;;;;;;6.50;3.40;;;;;;;;;;4973085;28;20050;-63
2022/03/28 00:47:08;;;;;;;6.45;3.60;;;;;;;;;;4972090;28;20129;-63
2022/03/28 00:49:34;;;;;;;6.72;3.80;;;;;;;;;;4972815;28;20473;-63
2022/03/28 00:52:01;;;;;;;9.10;4.32;;;;;;;;;;4972567;28;20829;-63
2022/03/28 00:54:27;;;;;;;7.75;4.10;;;;;;;;;;4972054;28;20049;-63
2022/03/28 00:56:55;;;;;;;8.75;4.18;;;;;;;;;;4972486;28;20034;-63
2022/03/28 00:59:21;;;;;;;8.05;4.57;;;;;;;;;;4971359;28;20058;-63
2022/03/28 01:01:47;;;;;;;10.55;5.55;;;;;;;;;;4970782;28;20513;-64
2022/03/28 01:04:14;;;;;;;9.80;5.05;;;;;;;;;;4972665;28;20070;-63
2022/03/28 01:06:40;;;;;;;10.55;5.13;;;;;;;;;;4972617;28;20130;-63
2022/03/28 01:09:06;;;;;;;9.95;5.43;;;;;;;;;;4971931;28;20047;-63
2022/03/28 01:11:33;;;;;;;9.05;4.88;;;;;;;;;;4972634;28;20174;-63
2022/03/28 01:13:59;;;;;;;8.40;5.03;;;;;;;;;;4972664;28;20065;-63
2022/03/28 01:16:29;;;;;;;9.77;5.55;;;;;;;;;;4971837;28;20450;-63
2022/03/28 01:18:55;;;;;;;10.43;5.95;;;;;;;;;;4972296;28;20071;-63
2022/03/28 01:21:21;;;;;;;11.13;5.95;;;;;;;;;;4972513;28;20521;-64
2022/03/28 01:23:47;;;;;;;12.23;6.60;;;;;;;;;;4971576;28;20075;-63
2022/03/28 01:26:15;;;;;;;11.48;6.38;;;;;;;;;;4981527;28;20065;-63
2022/03/28 01:28:41;;;;;;;13.18;6.18;;;;;;;;;;4991636;28;20096;-63
2022/03/28 01:31:10;;;;;;;13.15;7.10;;;;;;;;;;4989865;28;20129;-63
2022/03/28 01:33:36;;;;;;;15.65;7.82;;;;;;;;;;4991888;28;20042;-63
2022/03/28 01:36:02;;;;;;;14.55;7.88;;;;;;;;;;4991873;28;20049;-63
2022/03/28 01:38:28;;;;;;;16.55;8.73;;;;;;;;;;4991230;28;20129;-63
2022/03/28 01:40:54;;;;;;;17.25;9.27;;;;;;;;;;4991867;28;20250;-63
2022/03/28 01:43:21;;;;;;;15.85;8.93;;;;;;;;;;4991409;28;20523;-63
2022/03/28 01:45:47;;;;;;;17.73;9.65;;;;;;;;;;4991106;28;20042;-63
2022/03/28 01:48:14;;;;;;;18.08;9.27;;;;;;;;;;4991659;28;20551;-63
2022/03/28 01:50:40;;;;;;;15.68;9.50;;;;;;;;;;4991872;28;20586;-63
2022/03/28 01:53:06;;;;;;;21.15;10.27;;;;;;;;;;4990882;28;20604;-63
2022/03/28 01:55:33;;;;;;;19.38;9.07;;;;;;;;;;4993825;28;20046;-63
2022/03/28 01:57:59;;;;;;;18.13;10.05;;;;;;;;;;4995114;28;20042;-63
2022/03/28 02:00:25;;;;;;;21.80;10.15;;;;;;;;;;4994539;28;20041;-63
2022/03/28 02:02:52;;;;;;;18.08;10.07;;;;;;;;;;4995106;28;20046;-63
2022/03/28 02:05:18;;;;;;;19.88;10.45;;;;;;;;;;4995055;28;20096;-63
2022/03/28 02:07:46;;;;;;;20.75;11.57;;;;;;;;;;4994064;28;20045;-63
2022/03/28 02:10:14;;;;;;;17.48;10.35;;;;;;;;;;4995104;28;20038;-63
2022/03/28 02:12:41;;;;;;;21.65;10.27;;;;;;;;;;4995004;28;20046;-63
2022/03/28 02:15:08;;;;;;;19.42;10.85;;;;;;;;;;4994226;28;20057;-63
2022/03/28 02:17:34;;;;;;;24.55;11.88;;;;;;;;;;4994295;28;20038;-63
2022/03/28 02:20:00;;;;;;;22.88;11.00;;;;;;;;;;4994663;28;20043;-63
2022/03/28 02:22:26;;;;;;;25.10;10.75;;;;;;;;;;4993888;28;20416;-63
2022/03/28 02:24:53;;;;;;;27.60;12.50;;;;;;;;;;4994632;28;20046;-63
2022/03/28 02:27:19;;;;;;;18.45;10.77;;;;;;;;;;4976535;28;20467;-63
2022/03/28 02:29:45;;;;;;;22.15;12.95;;;;;;;;;;4974602;28;20038;-63
2022/03/28 02:32:12;;;;;;;23.02;12.13;;;;;;;;;;4975201;28;20521;-63
2022/03/28 02:34:38;;;;;;;33.72;12.95;;;;;;;;;;4974788;28;20125;-63
2022/03/28 02:37:05;;;;;;;20.90;12.43;;;;;;;;;;4974409;28;20127;-63
2022/03/28 02:39:31;;;;;;;22.70;13.35;;;;;;;;;;4974987;28;20307;-64
2022/03/28 02:41:57;;;;;;;33.40;14.40;;;;;;;;;;4975025;28;20421;-63
2022/03/28 02:44:23;;;;;;;27.02;13.57;;;;;;;;;;4973862;28;20058;-63
2022/03/28 02:46:49;;;;;;;29.83;14.60;;;;;;;;;;4974885;28;20555;-63
2022/03/28 02:49:19;;;;;;;41.47;15.63;;;;;;;;;;4974965;28;20050;-63
2022/03/28 02:51:45;;;;;;;37.95;16.42;;;;;;;;;;4974133;28;20093;-63
2022/03/28 02:54:11;;;;;;;32.20;17.38;;;;;;;;;;4974609;28;20478;-63
2022/03/28 02:56:37;;;;;;;65.78;17.00;;;;;;;;;;4974342;28;20042;-63
2022/03/28 02:59:04;;;;;;;44.45;18.05;;;;;;;;;;4973644;28;20045;-63
2022/03/28 03:01:30;;;;;;;53.70;18.42;;;;;;;;;;4974616;28;20046;-63
2022/03/28 03:03:56;;;;;;;40.70;19.15;;;;;;;;;;4974373;28;20125;-63
2022/03/28 03:06:22;;;;;;;41.53;18.25;;;;;;;;;;4973539;28;20050;-63
2022/03/28 03:08:50;;;;;;;54.58;17.50;;;;;;;;;;4974237;28;20043;-63
2022/03/28 03:11:16;;;;;;;42.22;18.10;;;;;;;;;;4974177;28;20046;-63
2022/03/28 03:13:43;;;;;;;37.00;16.45;;;;;;;;;;4972254;28;20106;-63
2022/03/28 03:16:09;;;;;;;56.03;18.38;;;;;;;;;;4974223;28;20145;-63
2022/03/28 03:18:35;;;;;;;39.58;15.80;;;;;;;;;;4974166;28;20385;-63
2022/03/28 03:21:01;;;;;;;30.52;15.15;;;;;;;;;;4973628;28;20521;-63
2022/03/28 03:23:27;;;;;;;25.92;16.02;;;;;;;;;;4974295;28;20074;-63
2022/03/28 03:25:53;;;;;;;26.63;15.20;;;;;;;;;;4980582;28;20057;-63
2022/03/28 03:28:20;;;;;;;24.58;15.13;;;;;;;;;;4991433;28;20093;-63
2022/03/28 03:30:46;;;;;;;28.33;15.82;;;;;;;;;;4993613;28;20579;-63
2022/03/28 03:33:12;;;;;;;27.63;15.13;;;;;;;;;;4993434;28;20042;-63
2022/03/28 03:35:40;;;;;;;25.90;15.15;;;;;;;;;;4992810;28;20042;-63
2022/03/28 03:38:06;;;;;;;24.23;15.30;;;;;;;;;;4993216;28;20050;-63
2022/03/28 03:40:32;;;;;;;22.25;12.88;;;;;;;;;;4991653;28;20516;-63
2022/03/28 03:42:58;;;;;;;22.27;13.50;;;;;;;;;;4992338;28;20058;-63
2022/03/28 03:45:24;;;;;;;26.10;13.48;;;;;;;;;;4993179;28;20551;-63
2022/03/28 03:47:51;;;;;;;21.65;14.48;;;;;;;;;;4993085;28;20050;-63
2022/03/28 03:50:17;;;;;;;23.15;14.45;;;;;;;;;;4992422;28;20041;-63
2022/03/28 03:52:43;;;;;;;31.08;15.93;;;;;;;;;;4992771;28;20045;-63
2022/03/28 03:55:09;;;;;;;23.85;15.50;;;;;;;;;;4992722;28;20045;-64
2022/03/28 03:57:35;;;;;;;23.52;14.40;;;;;;;;;;4992214;28;20073;-63
2022/03/28 04:00:02;;;;;;;40.60;15.95;;;;;;;;;;4993048;28;20050;-63
2022/03/28 04:02:28;;;;;;;36.33;13.80;;;;;;;;;;4993117;28;20043;-63
2022/03/28 04:04:54;;;;;;;26.02;13.15;;;;;;;;;;4992502;28;20046;-63
2022/03/28 04:07:20;;;;;;;21.52;13.30;;;;;;;;;;4992634;28;20077;-63
2022/03/28 04:09:46;;;;;;;22.10;13.25;;;;;;;;;;4992827;28;20053;-63
2022/03/28 04:12:12;;;;;;;19.98;13.10;;;;;;;;;;4992805;28;20049;-63
2022/03/28 04:14:39;;;;;;;26.30;14.05;;;;;;;;;;4992400;28;20361;-63
2022/03/28 04:17:05;;;;;;;20.63;13.57;;;;;;;;;;4992206;28;20046;-63
2022/03/28 04:19:31;;;;;;;22.88;13.65;;;;;;;;;;4992299;28;20839;-63
2022/03/28 04:21:58;;;;;;;25.17;13.88;;;;;;;;;;4990643;28;20239;-63
2022/03/28 04:24:24;;;;;;;23.85;13.77;;;;;;;;;;4992562;28;20053;-63
2022/03/28 04:26:50;;;;;;;21.77;13.45;;;;;;;;;;4978359;28;20046;-63
2022/03/28 04:29:16;;;;;;;24.40;14.73;;;;;;;;;;4972409;28;20388;-63
2022/03/28 04:31:42;;;;;;;22.58;14.32;;;;;;;;;;4973113;28;20051;-63
2022/03/28 04:34:09;;;;;;;23.38;14.40;;;;;;;;;;4972945;28;20042;-63
2022/03/28 04:36:35;;;;;;;21.45;13.63;;;;;;;;;;4971867;28;20043;-64
2022/03/28 04:39:01;;;;;;;21.60;13.55;;;;;;;;;;4972906;28;20035;-63
2022/03/28 04:41:27;;;;;;;23.10;14.40;;;;;;;;;;4972844;28;20521;-63
2022/03/28 04:43:53;;;;;;;24.85;13.52;;;;;;;;;;4971827;28;20063;-63
2022/03/28 04:46:19;;;;;;;19.83;12.88;;;;;;;;;;4972844;28;20046;-63
2022/03/28 04:48:47;;;;;;;22.00;13.38;;;;;;;;;;4972619;28;20043;-63
2022/03/28 04:51:13;;;;;;;23.83;13.30;;;;;;;;;;4972210;28;20130;-63
2022/03/28 04:53:39;;;;;;;23.52;14.43;;;;;;;;;;4972642;28;20646;-63
2022/03/28 04:56:05;;;;;;;24.05;13.90;;;;;;;;;;4972509;28;20093;-63
2022/03/28 04:58:31;;;;;;;27.45;14.93;;;;;;;;;;4972146;28;20804;-63
2022/03/28 05:00:57;;;;;;;23.58;14.43;;;;;;;;;;4972789;28;20070;-63
2022/03/28 05:03:23;;;;;;;24.27;14.60;;;;;;;;;;4972598;28;20046;-63
2022/03/28 05:05:49;;;;;;;26.17;15.15;;;;;;;;;;4971779;28;20366;-63
2022/03/28 05:08:15;;;;;;;29.00;17.92;;;;;;;;;;4972413;28;20046;-64
2022/03/28 05:10:41;;;;;;;27.63;16.42;;;;;;;;;;4972318;28;20054;-63
2022/03/28 05:13:07;;;;;;;30.80;17.85;;;;;;;;;;4971747;28;20166;-63
2022/03/28 05:15:33;;;;;;;31.13;18.48;;;;;;;;;;4972678;28;20039;-63
2022/03/28 05:18:01;;;;;;;33.33;19.88;;;;;;;;;;4972519;28;20046;-63
2022/03/28 05:20:27;;;;;;;32.90;20.10;;;;;;;;;;4971430;28;20047;-63
2022/03/28 05:22:53;;;;;;;39.50;20.55;;;;;;;;;;4972416;28;20062;-63
2022/03/28 05:25:19;;;;;;;34.05;19.60;;;;;;;;;;4974090;28;20066;-63
2022/03/28 05:27:46;;;;;;;33.97;19.02;;;;;;;;;;4992219;28;20034;-63
2022/03/28 05:30:13;;;;;;;32.97;18.98;;;;;;;;;;4995740;28;20047;-63
2022/03/28 05:32:39;;;;;;;37.20;20.90;;;;;;;;;;4995812;28;20039;-63
2022/03/28 05:35:06;;;;;;;29.90;17.85;;;;;;;;;;4993796;28;20528;-63
2022/03/28 05:37:32;;;;;;;26.05;15.98;;;;;;;;;;4994119;28;20480;-63
2022/03/28 05:39:58;;;;;;;28.17;15.55;;;;;;;;;;4995152;28;20049;-63
2022/03/28 05:42:25;;;;;;;32.95;18.08;;;;;;;;;;4994279;28;20544;-63
2022/03/28 05:44:51;;;;;;;27.02;16.90;;;;;;;;;;4991755;28;20516;-63
2022/03/28 05:47:17;;;;;;;23.60;14.02;;;;;;;;;;4993499;28;20046;-63
2022/03/28 05:49:43;;;;;;;21.88;13.55;;;;;;;;;;4993339;28;20117;-64
2022/03/28 05:52:09;;;;;;;23.92;13.57;;;;;;;;;;4994628;28;20042;-64
2022/03/28 05:54:35;;;;;;;19.73;12.15;;;;;;;;;;4994831;28;20047;-64
2022/03/28 05:57:01;;;;;;;21.92;12.75;;;;;;;;;;4975063;28;20354;-63
2022/03/28 05:59:28;;;;;;;22.63;12.30;;;;;;;;;;4982217;28;20101;-63
2022/03/28 06:01:54;;;;;;;22.10;12.70;;;;;;;;;;4974854;28;20039;-63
2022/03/28 06:04:20;;;;;;;22.52;12.60;;;;;;;;;;4974532;28;20043;-63
2022/03/28 06:06:47;;;;;;;22.40;12.95;;;;;;;;;;4974846;28;20050;-65
2022/03/28 06:09:13;;;;;;;19.90;11.30;;;;;;;;;;4986943;28;20053;-64
2022/03/28 06:11:39;;;;;;;18.48;10.18;;;;;;;;;;4985985;28;20047;-64
2022/03/28 06:14:06;;;;;;;18.25;10.40;;;;;;;;;;4975036;28;20049;-64
2022/03/28 06:16:32;;;;;;;19.30;10.15;;;;;;;;;;4974678;28;20043;-64
2022/03/28 06:18:58;;;;;;;16.25;9.55;;;;;;;;;;4974133;28;20046;-64
2022/03/28 06:21:24;;;;;;;15.95;9.15;;;;;;;;;;4975281;28;20382;-63
2022/03/28 06:23:50;;;;;;;15.82;8.52;;;;;;;;;;4980566;28;20073;-64
2022/03/28 06:26:17;;;;;;;16.73;8.68;;;;;;;;;;4988016;28;20453;-64
2022/03/28 06:28:46;;;;;;;17.45;9.88;;;;;;;;;;4978336;28;20141;-64
2022/03/28 06:31:12;;;;;;;16.70;8.85;;;;;;;;;;4977992;28;20042;-64
2022/03/28 06:33:38;;;;;;;15.20;8.50;;;;;;;;;;4986222;28;20054;-65
2022/03/28 06:36:05;;;;;;;13.68;7.60;;;;;;;;;;4989548;28;20118;-67
2022/03/28 06:38:31;;;;;;;13.02;7.32;;;;;;;;;;4979233;28;20038;-64
2022/03/28 06:40:57;;;;;;;11.68;6.63;;;;;;;;;;4974925;28;20038;-66
2022/03/28 06:43:23;;;;;;;10.77;5.88;;;;;;;;;;4978332;28;20059;-64
2022/03/28 06:45:51;;;;;;;8.75;5.22;;;;;;;;;;4993576;28;20061;-64
2022/03/28 06:48:17;;;;;;;10.32;5.53;;;;;;;;;;4992979;28;20039;-64
2022/03/28 06:50:43;;;;;;;8.90;5.43;;;;;;;;;;4992559;28;20113;-64
2022/03/28 06:53:09;;;;;;;8.40;4.80;;;;;;;;;;4993080;28;20469;-64
2022/03/28 06:55:36;;;;;;;9.32;5.00;;;;;;;;;;4992651;28;20177;-63
2022/03/28 06:58:02;;;;;;;8.32;5.43;;;;;;;;;;4992762;28;20136;-63
2022/03/28 07:00:28;;;;;;;9.55;5.72;;;;;;;;;;4980449;28;20042;-64
2022/03/28 07:02:54;;;;;;;9.52;5.50;;;;;;;;;;4992183;28;20046;-63
2022/03/28 07:05:20;;;;;;;9.93;5.15;;;;;;;;;;4973757;28;20093;-63
2022/03/28 07:07:47;;;;;;;10.05;5.47;;;;;;;;;;4973018;28;20043;-64
2022/03/28 07:10:14;;;;;;;9.35;4.97;;;;;;;;;;4972679;28;20038;-64
2022/03/28 07:12:40;;;;;;;9.63;4.53;;;;;;;;;;4978572;28;20105;-62
2022/03/28 07:15:07;;;;;;;8.07;4.80;;;;;;;;;;4972182;28;20042;-63
2022/03/28 07:17:52;;;;;;;9.23;5.43;;;;;;;;;;4981353;28;20109;-64
2022/03/28 07:20:18;;;;;;;10.27;5.70;;;;;;;;;;4987753;28;20078;-64
2022/03/28 07:22:44;;;;;;;10.15;5.70;;;;;;;;;;4991282;28;20053;-62
2022/03/28 07:25:11;;;;;;;9.82;5.05;;;;;;;;;;4989988;28;20034;-65
2022/03/28 07:27:38;;;;;;;9.88;5.00;;;;;;;;;;4988294;28;20049;-64
2022/03/28 07:30:04;;;;;;;9.98;5.32;;;;;;;;;;4982431;28;20437;-63
2022/03/28 07:32:30;;;;;;;12.63;5.75;;;;;;;;;;4985402;28;20042;-65
2022/03/28 07:34:56;;;;;;;10.40;6.43;;;;;;;;;;4977481;28;20153;-64
2022/03/28 07:37:22;;;;;;;10.07;5.85;;;;;;;;;;4985952;28;20033;-63
2022/03/28 07:39:49;;;;;;;11.45;5.80;;;;;;;;;;4981698;28;20109;-66
2022/03/28 07:42:15;;;;;;;10.52;5.85;;;;;;;;;;4986216;28;20647;-66
2022/03/28 07:44:42;;;;;;;11.15;6.03;;;;;;;;;;4990197;28;20587;-66
2022/03/28 07:47:10;;;;;;;15.27;6.88;;;;;;;;;;4960793;28;20061;-66
2022/03/28 07:49:37;;;;;;;13.43;6.70;;;;;;;;;;4984458;28;20101;-65
2022/03/28 07:52:04;;;;;;;14.70;8.15;;;;;;;;;;4989833;28;20050;-65
2022/03/28 07:54:32;;;;;;;16.88;7.93;;;;;;;;;;5003877;28;20807;-63
2022/03/28 07:56:58;;;;;;;16.45;7.78;;;;;;;;;;4979982;28;20074;-63
2022/03/28 07:59:24;;;;;;;17.00;8.10;;;;;;;;;;4982448;28;20073;-64
2022/03/28 08:01:54;;;;;;;15.88;7.63;;;;;;;;;;4985443;28;20030;-65
2022/03/28 08:04:20;;;;;;;17.10;8.43;;;;;;;;;;4982588;28;20058;-65
2022/03/28 08:06:46;;;;;;;15.77;8.02;;;;;;;;;;4999424;28;20046;-66
2022/03/28 08:09:12;;;;;;;17.23;8.57;;;;;;;;;;4977902;28;20133;-69
2022/03/28 08:11:38;;;;;;;17.08;9.05;;;;;;;;;;4980597;28;20035;-66
2022/03/28 08:14:04;;;;;;;15.45;8.15;;;;;;;;;;4997662;28;20453;-65
2022/03/28 08:16:31;;;;;;;18.65;8.68;;;;;;;;;;4985407;28;20046;-65
2022/03/28 08:18:57;;;;;;;20.35;9.27;;;;;;;;;;4981729;28;20113;-65
2022/03/28 08:21:23;;;;;;;16.73;8.82;;;;;;;;;;4978746;28;20117;-66
2022/03/28 08:23:49;;;;;;;16.92;8.48;;;;;;;;;;4975770;28;20046;-65
2022/03/28 08:26:16;;;;;;;16.35;8.23;;;;;;;;;;4991640;28;20048;-67
2022/03/28 08:28:43;;;;;;;18.55;8.90;;;;;;;;;;4990134;28;20046;-64
2022/03/28 08:31:09;;;;;;;19.85;8.82;;;;;;;;;;4984577;28;20042;-65
2022/03/28 08:33:35;;;;;;;15.48;8.32;;;;;;;;;;4984825;28;20046;-65
2022/03/28 08:36:01;;;;;;;17.80;8.40;;;;;;;;;;4986313;28;20544;-67
2022/03/28 08:38:27;;;;;;;18.45;8.90;;;;;;;;;;4976231;28;20039;-65
2022/03/28 08:40:54;;;;;;;20.10;9.40;;;;;;;;;;4978022;28;20043;-64
2022/03/28 08:43:21;;;;;;;22.83;10.07;;;;;;;;;;4990657;28;20473;-66
2022/03/28 08:45:50;;;;;;;19.55;9.05;;;;;;;;;;4984737;28;20050;-67
2022/03/28 08:48:17;;;;;;;20.63;9.45;;;;;;;;;;4983688;28;20026;-65
2022/03/28 08:50:44;;;;;;;16.48;7.70;;;;;;;;;;4982639;28;20511;-64
2022/03/28 08:53:11;;;;;;;19.60;8.45;;;;;;;;;;4979205;28;20056;-63
2022/03/28 08:55:44;;;;;;;15.35;8.52;;;;;;;;;;4977887;28;20093;-64
2022/03/28 08:58:11;;;;;;;15.95;8.55;;;;;;;;;;4986030;28;20926;-64
2022/03/28 09:00:37;;;;;;;19.17;8.32;;;;;;;;;;4977256;28;20069;-66
2022/03/28 09:03:03;;;;;;;15.77;8.23;;;;;;;;;;4978520;28;20489;-65
2022/03/28 09:05:33;;;;;;;17.27;8.38;;;;;;;;;;4990468;28;20499;-64
2022/03/28 09:08:00;;;;;;;15.10;8.50;;;;;;;;;;4981948;28;20113;-63
2022/03/28 09:10:28;;;;;;;15.93;8.55;;;;;;;;;;4985352;28;20093;-64
2022/03/28 09:12:57;;;;;;;17.52;8.32;;;;;;;;;;4981537;28;20492;-64
2022/03/28 09:15:24;;;;;;;18.30;8.85;;;;;;;;;;4983805;28;20077;-65
2022/03/28 09:17:56;;;;;;;20.92;7.70;;;;;;;;;;4985057;28;20393;-67
2022/03/28 09:20:23;;;;;;;17.45;9.32;;;;;;;;;;4991296;28;20125;-66
2022/03/28 09:22:49;;;;;;;15.07;8.20;;;;;;;;;;4987826;28;20050;-66
2022/03/28 09:25:18;;;;;;;20.52;8.85;;;;;;;;;;4987507;28;20633;-64
2022/03/28 09:27:44;;;;;;;13.63;6.93;;;;;;;;;;4988730;28;20120;-65
2022/03/28 09:30:18;;;;;;;13.30;7.55;;;;;;;;;;4988643;28;20085;-65
2022/03/28 09:32:48;;;;;;;17.08;8.45;;;;;;;;;;4968738;28;20047;-64
2022/03/28 09:35:24;;;;;;;15.23;7.85;;;;;;;;;;4983490;28;20066;-64
2022/03/28 09:37:53;;;;;;;18.08;7.80;;;;;;;;;;4977729;28;20049;-63
2022/03/28 09:40:27;;;;;;;15.85;8.05;;;;;;;;;;4986119;28;20035;-65
2022/03/28 09:42:54;;;;;;;13.98;7.60;;;;;;;;;;4978523;28;20133;-65
2022/03/28 09:45:39;;;;;;;14.57;7.90;;;;;;;;;;4986273;28;20042;-65
2022/03/28 09:48:08;;;;;;;14.10;7.40;;;;;;;;;;4982519;28;20429;-64
2022/03/28 09:50:34;;;;;;;14.85;6.88;;;;;;;;;;4988888;28;20050;-63
2022/03/28 09:53:11;;;;;;;14.20;7.13;;;;;;;;;;4991168;28;20038;-63
2022/03/28 09:55:46;;;;;;;12.60;6.97;;;;;;;;;;4984111;28;20065;-64
2022/03/28 09:58:31;;;;;;;16.05;6.72;;;;;;;;;;4986839;28;20042;-64
2022/03/28 10:00:57;;;;;;;12.57;7.25;;;;;;;;;;4984040;28;20477;-65
2022/03/28 10:03:23;;;;;;;14.68;7.70;;;;;;;;;;4983275;28;20574;-65
2022/03/28 10:05:50;;;;;;;13.23;7.47;;;;;;;;;;4983491;28;20050;-67
2022/03/28 10:08:16;;;;;;;14.55;8.13;;;;;;;;;;4985801;28;20038;-64
2022/03/28 10:10:43;;;;;;;14.57;7.90;;;;;;;;;;4988014;28;20046;-66
2022/03/28 10:13:09;;;;;;;16.23;8.85;;;;;;;;;;4986176;28;20504;-65
2022/03/28 10:15:35;;;;;;;14.82;8.35;;;;;;;;;;4979201;28;20046;-64
2022/03/28 10:18:02;;;;;;;14.88;8.10;;;;;;;;;;4988207;28;20073;-65
2022/03/28 10:20:28;;;;;;;16.77;9.68;;;;;;;;;;4978710;28;20043;-67
2022/03/28 10:22:54;;;;;;;20.83;9.68;;;;;;;;;;4983446;28;20116;-66
2022/03/28 10:25:22;;;;;;;17.90;9.30;;;;;;;;;;4979911;28;20126;-66
2022/03/28 10:27:48;;;;;;;20.13;9.85;;;;;;;;;;4982664;28;20042;-67
2022/03/28 10:30:20;;;;;;;18.88;9.25;;;;;;;;;;4985489;28;20054;-66
2022/03/28 10:32:46;;;;;;;18.73;9.97;;;;;;;;;;4987763;28;20049;-64
2022/03/28 10:35:13;;;;;;;15.25;9.45;;;;;;;;;;4984468;28;20046;-64
2022/03/28 10:37:47;;;;;;;17.33;9.95;;;;;;;;;;4990302;28;20053;-64
2022/03/28 10:40:17;;;;;;;17.65;9.45;;;;;;;;;;4994959;28;20084;-64
2022/03/28 10:43:02;;;;;;;20.58;9.95;;;;;;;;;;4976725;28;20058;-65
2022/03/28 10:45:32;;;;;;;16.00;9.48;;;;;;;;;;4978864;28;20055;-64
2022/03/28 10:48:01;;;;;;;16.27;9.73;;;;;;;;;;4986264;28;20089;-64
2022/03/28 10:50:29;;;;;;;16.90;9.95;;;;;;;;;;4979735;28;20497;-65
2022/03/28 10:53:13;;;;;;;16.95;10.18;;;;;;;;;;4978515;28;20046;-64
2022/03/28 10:55:47;;;;;;;16.20;9.77;;;;;;;;;;4981125;28;20409;-64
2022/03/28 10:58:21;;;;;;;20.75;10.25;;;;;;;;;;4992185;28;20069;-64
2022/03/28 11:01:05;;;;;;;17.65;9.50;;;;;;;;;;4982983;28;20034;-64
2022/03/28 11:03:44;;;;;;;18.90;9.90;;;;;;;;;;4985213;28;20097;-64
2022/03/28 11:06:11;;;;;;;18.15;10.65;;;;;;;;;;4985571;28;20121;-65
2022/03/28 11:08:41;;;;;;;19.20;10.52;;;;;;;;;;4981524;28;20038;-67
2022/03/28 11:11:14;;;;;;;20.65;11.63;;;;;;;;;;4974729;28;20049;-65
2022/03/28 11:13:40;;;;;;;16.92;11.05;;;;;;;;;;4979527;28;20054;-65
2022/03/28 11:16:06;;;;;;;20.02;10.85;;;;;;;;;;4978060;28;20046;-64
2022/03/28 11:18:32;;;;;;;21.15;12.27;;;;;;;;;;4983904;28;20049;-66
2022/03/28 11:20:58;;;;;;;20.90;11.75;;;;;;;;;;4985361;28;20117;-65
2022/03/28 11:23:26;;;;;;;21.63;12.55;;;;;;;;;;4986131;28;20150;-64
2022/03/28 11:25:52;;;;;;;21.10;11.82;;;;;;;;;;4982436;28;20047;-66
2022/03/28 11:28:18;;;;;;;19.15;12.23;;;;;;;;;;4984842;28;20492;-66
2022/03/28 11:30:44;;;;;;;21.83;11.55;;;;;;;;;;4981563;28;20034;-64
2022/03/28 11:33:11;;;;;;;17.58;10.90;;;;;;;;;;4984533;28;20038;-65
2022/03/28 11:35:39;;;;;;;19.15;12.15;;;;;;;;;;4978287;28;20045;-66
2022/03/28 11:38:06;;;;;;;20.33;12.10;;;;;;;;;;4979241;28;20042;-65
2022/03/28 11:40:39;;;;;;;18.88;11.40;;;;;;;;;;4982318;28;20061;-66
2022/03/28 11:43:05;;;;;;;17.00;11.55;;;;;;;;;;4982553;28;20050;-65
2022/03/28 11:45:31;;;;;;;20.17;11.40;;;;;;;;;;4979684;28;20068;-65
2022/03/28 11:47:59;;;;;;;19.95;11.52;;;;;;;;;;4980411;28;20472;-65
2022/03/28 11:50:29;;;;;;;23.02;12.38;;;;;;;;;;4979111;28;20105;-65
2022/03/28 11:52:55;;;;;;;19.58;12.18;;;;;;;;;;4980747;28;20448;-65
2022/03/28 11:55:24;;;;;;;17.55;11.77;;;;;;;;;;4980900;28;20525;-66
2022/03/28 12:00:36;;;;;;;21.00;11.93;;;;;;;;;;4985124;28;20046;-65
2022/03/28 12:03:05;;;;;;;21.85;12.80;;;;;;;;;;4975064;28;20046;-65
2022/03/28 12:05:39;;;;;;;18.75;11.95;;;;;;;;;;4987225;28;20046;-65
2022/03/28 12:08:14;;;;;;;20.60;12.82;;;;;;;;;;4986627;28;20038;-62
2022/03/28 12:10:42;;;;;;;19.98;13.07;;;;;;;;;;4980813;28;20035;-63
2022/03/28 12:13:09;;;;;;;24.08;14.85;;;;;;;;;;4981114;28;20540;-64
2022/03/28 12:15:46;;;;;;;19.73;12.57;;;;;;;;;;4989355;28;20042;-65
2022/03/28 12:18:13;;;;;;;19.95;12.85;;;;;;;;;;4988649;28;20046;-66
2022/03/28 12:20:40;;;;;;;21.23;13.05;;;;;;;;;;4984505;28;20030;-66
2022/03/28 12:23:07;;;;;;;16.95;11.75;;;;;;;;;;4985085;28;20141;-66
2022/03/28 12:25:35;;;;;;;20.58;13.48;;;;;;;;;;4977689;28;20043;-64
2022/03/28 12:28:02;;;;;;;19.08;12.98;;;;;;;;;;4982788;28;20042;-65
2022/03/28 12:30:29;;;;;;;18.83;13.32;;;;;;;;;;4997158;28;20052;-65
2022/03/28 12:32:56;;;;;;;19.92;12.65;;;;;;;;;;4980768;28;20069;-64
2022/03/28 12:35:23;;;;;;;18.95;12.23;;;;;;;;;;4988433;28;20070;-67
2022/03/28 12:38:00;;;;;;;21.77;12.35;;;;;;;;;;4989751;28;20154;-67
2022/03/28 12:40:27;;;;;;;17.92;11.90;;;;;;;;;;4978813;28;20042;-64
2022/03/28 12:42:54;;;;;;;19.95;11.95;;;;;;;;;;4978964;28;20098;-68
2022/03/28 12:45:23;;;;;;;17.63;11.68;;;;;;;;;;4981216;28;20052;-67
2022/03/28 12:48:01;;;;;;;14.95;11.32;;;;;;;;;;4982945;28;20935;-68
2022/03/28 12:50:27;;;;;;;16.33;12.15;;;;;;;;;;4984481;28;20042;-68
2022/03/28 12:53:14;;;;;;;16.05;11.80;;;;;;;;;;4986904;28;20173;-64
2022/03/28 12:55:41;;;;;;;15.20;12.45;;;;;;;;;;4986150;28;20042;-63
2022/03/28 12:58:08;;;;;;;15.23;11.73;;;;;;;;;;4976103;28;20545;-64
2022/03/28 13:00:34;;;;;;;14.75;11.25;;;;;;;;;;4981238;28;20594;-64
2022/03/28 13:03:01;;;;;;;15.25;11.77;;;;;;;;;;4982568;28;20122;-65
2022/03/28 13:05:31;;;;;;;18.80;12.43;;;;;;;;;;4982183;28;20050;-65
2022/03/28 13:08:05;;;;;;;16.67;11.73;;;;;;;;;;4980881;28;20434;-63
2022/03/28 13:10:33;;;;;;;13.63;11.80;;;;;;;;;;4982356;28;20035;-68
2022/03/28 13:13:00;;;;;;;14.30;11.27;;;;;;;;;;4985836;28;20039;-66
2022/03/28 13:15:30;;;;;;;16.05;10.65;;;;;;;;;;4981648;28;20052;-64
2022/03/28 13:18:12;;;;;;;14.48;10.68;;;;;;;;;;4978738;28;20038;-64
2022/03/28 13:20:40;;;;;;;12.52;10.07;;;;;;;;;;4981213;28;20047;-64
2022/03/28 13:23:20;;;;;;;14.90;10.52;;;;;;;;;;4976888;28;20565;-62
2022/03/28 13:25:46;;;;;;;13.63;10.50;;;;;;;;;;4982152;28;20074;-62
2022/03/28 13:28:16;;;;;;;13.80;10.93;;;;;;;;;;4979632;28;20090;-62
2022/03/28 13:30:47;;;;;;;14.77;10.75;;;;;;;;;;4984158;28;20041;-62
2022/03/28 13:33:14;;;;;;;10.93;9.60;;;;;;;;;;4979979;28;20465;-62
2022/03/28 13:35:41;;;;;;;18.30;9.95;;;;;;;;;;4979669;28;20042;-61
2022/03/28 13:38:09;;;;;;;11.60;9.65;;;;;;;;;;4984629;28;20088;-62
2022/03/28 13:40:37;;;;;;;10.95;9.75;;;;;;;;;;4979610;28;20109;-63
2022/03/28 13:43:03;;;;;;;14.45;10.35;;;;;;;;;;4985532;28;20058;-65
2022/03/28 13:45:30;;;;;;;14.48;10.55;;;;;;;;;;4981170;28;20050;-64
2022/03/28 13:47:56;;;;;;;11.40;10.18;;;;;;;;;;4988171;28;20042;-64
2022/03/28 13:50:23;;;;;;;10.60;9.50;;;;;;;;;;4989106;28;20136;-64
2022/03/28 13:52:49;;;;;;;14.75;10.75;;;;;;;;;;4987940;28;20046;-66
2022/03/28 13:55:17;;;;;;;12.35;10.00;;;;;;;;;;4990215;28;20397;-65
2022/03/28 13:57:44;;;;;;;11.10;9.85;;;;;;;;;;4981645;28;20046;-63
2022/03/28 14:00:11;;;;;;;13.05;10.05;;;;;;;;;;4982975;28;20391;-63
2022/03/28 14:02:37;;;;;;;12.05;10.10;;;;;;;;;;4985005;28;20046;-64
2022/03/28 14:05:04;;;;;;;13.05;9.85;;;;;;;;;;4979513;28;20051;-65
2022/03/28 14:07:31;;;;;;;13.65;10.05;;;;;;;;;;4986620;28;20053;-65
2022/03/28 14:09:57;;;;;;;12.93;9.90;;;;;;;;;;4989925;28;20553;-64
2022/03/28 14:12:27;;;;;;;14.27;10.68;;;;;;;;;;4979512;28;20164;-62
2022/03/28 14:14:53;;;;;;;11.57;9.77;;;;;;;;;;4992383;28;20065;-63
2022/03/28 14:17:19;;;;;;;12.63;10.02;;;;;;;;;;4982672;28;20062;-63
2022/03/28 14:19:45;;;;;;;12.90;10.88;;;;;;;;;;4976661;28;20038;-65
2022/03/28 14:22:11;;;;;;;12.55;10.15;;;;;;;;;;4982196;28;20812;-64
2022/03/28 14:24:37;;;;;;;14.52;11.20;;;;;;;;;;4980833;28;20046;-64
2022/03/28 14:27:04;;;;;;;16.50;11.07;;;;;;;;;;4982825;28;20042;-64